Ana Sayfa
METAR-TAF:

METAR-TAF

Havaalanları :

Fort-de-France, Martinique

Enlem: 14-36N, Boylam: 061-00W, yükseklik: 5 m

Güncel hava durumu gözlemi

Rapor saat 15:30 UTC de 19 dakika önce yapıldı.
Rüzgar doğudan 17 kt
Sıcaklık 29°C
Nem 70%
Basınç 1015 hPa
Görüş mesafesi 10 km veya daha fazla
3100 ft yükseklikte parçalı bulutlu
3700 ft yükseklikte parçalı çok bulutlu

METAR: TFFF 151530Z AUTO 10017KT 9999 SCT031 BKN037 29/23 Q1015 NOSIG

Saat: 11:49 (15:49 UTC)

Tahmin

Rapor saat 11:00 UTC de 4 saat ve 49 dakika önce yapıldı.
Ayın 15'si saat 12 UTC'den ayın 16'si saat 12 UTC'ye kadar geçerli Tahmin
Rüzgar doğudan 12 kt
Görüş mesafesi 10 km veya daha fazla
3000 ft yükseklikte parçalı bulutlu
Olasılık 30% :
Geçici
ayın 16'si saat 03 UTC'den ayın 16'si saat 12 UTC'ye kadar
Görüş mesafesi: 4000 m
2000 ft yükseklikte parçalı bulutlu, Yükselen kümülüs.
sağanak yağmurlar

TAF: TFFF 151100Z 1512/1612 10012KT 9999 SCT030 PROB30 TEMPO 1603/1612 4000 SHRA SCT020TCU

4.000'den fazla havaalanı için hava durumu gözlemleri ve tahminleri (METAR ve TAF raporları).

Kullanılabilir istasyonlar harita üzerinde sarı ve kırmızı noktalarla gösterilir.

İstasyonun adını görmek için fareyi noktanın üzerinde gezdirin.

Sonrasında hava gözlem ve tahminlerini görmek için tıklayın.

Haritayı değiştirmek için: yaklaştırmak için siyah artı işaretli yeşil düğmeye ve uzaklaştırmak için de eksi işaretli düğmeye hızla tıklayın; bitişik haritalar için yeşil okları kullanın.


METAR-TAF: